createdAt,value
2019-05-13T00:02:13.420Z,98211.75
2019-05-13T00:07:07.984Z,98210.30
2019-05-13T00:12:04.774Z,98199.70
2019-05-13T00:16:58.886Z,98188.09
2019-05-13T00:21:54.636Z,98188.64
2019-05-13T00:26:49.443Z,98189.01
2019-05-13T00:31:44.188Z,98192.85
2019-05-13T00:36:38.739Z,98184.19
2019-05-13T00:41:33.819Z,98193.62
2019-05-13T00:46:28.480Z,98188.42
2019-05-13T00:51:24.401Z,98184.71
2019-05-13T00:56:19.144Z,98178.03
2019-05-13T01:01:14.021Z,98187.19
2019-05-13T01:06:08.849Z,98180.64
2019-05-13T01:11:04.279Z,98177.23
2019-05-13T01:15:59.003Z,98173.34
2019-05-13T01:20:53.968Z,98170.70
2019-05-13T01:25:48.837Z,98168.64
2019-05-13T01:30:44.179Z,98164.61
2019-05-13T01:35:38.764Z,98159.39
2019-05-13T01:40:34.709Z,98165.09
2019-05-13T01:45:29.895Z,98165.44
2019-05-13T01:50:24.486Z,98151.27
2019-05-13T01:55:19.240Z,98155.32
2019-05-13T02:00:15.838Z,98152.09
2019-05-13T02:05:10.616Z,98150.16
2019-05-13T02:10:09.220Z,98151.63
2019-05-13T02:15:05.116Z,98155.55
2019-05-13T02:19:59.712Z,98151.48
2019-05-13T02:24:54.350Z,98149.02
2019-05-13T02:29:48.939Z,98155.23
2019-05-13T02:34:44.026Z,98153.59
2019-05-13T02:39:38.809Z,98159.63
2019-05-13T02:44:33.647Z,98156.71
2019-05-13T02:49:32.152Z,98158.33
2019-05-13T02:54:24.862Z,98164.70
2019-05-13T02:59:22.405Z,98164.86
2019-05-13T03:04:15.762Z,98161.91
2019-05-13T03:09:12.633Z,98165.66
2019-05-13T03:14:06.668Z,98162.90
2019-05-13T03:19:02.884Z,98162.58
2019-05-13T03:23:57.574Z,98161.11
2019-05-13T03:28:52.496Z,98168.42
2019-05-13T03:33:47.840Z,98166.64
2019-05-13T03:38:59.712Z,98173.80
2019-05-13T03:43:43.199Z,98169.07
2019-05-13T03:48:43.020Z,98177.55
2019-05-13T03:53:38.187Z,98185.05
2019-05-13T03:58:33.746Z,98185.85
2019-05-13T04:03:28.564Z,98180.63
2019-05-13T04:08:23.322Z,98188.63
2019-05-13T04:13:18.105Z,98184.38
2019-05-13T04:18:13.355Z,98195.10
2019-05-13T04:23:08.153Z,98197.33
2019-05-13T04:28:03.570Z,98194.05
2019-05-13T04:32:58.560Z,98185.91
2019-05-13T04:37:53.214Z,98169.05
2019-05-13T04:42:47.929Z,98162.86
2019-05-13T04:47:43.312Z,98162.73
2019-05-13T04:52:38.365Z,98166.70
2019-05-13T04:57:33.337Z,98166.56
2019-05-13T05:02:41.984Z,98170.59
2019-05-13T05:08:11.984Z,98162.64
2019-05-13T05:13:16.991Z,98178.83
2019-05-13T05:19:02.317Z,98181.55
2019-05-13T05:24:22.030Z,98189.88
2019-05-13T05:29:35.267Z,98179.37
2019-05-13T05:34:57.507Z,98186.82
2019-05-13T05:39:56.042Z,98178.23
2019-05-13T05:44:53.146Z,98192.34
2019-05-13T05:49:51.631Z,98181.86
2019-05-13T05:54:51.595Z,98184.67
2019-05-13T05:59:46.553Z,98180.95
2019-05-13T06:04:43.070Z,98176.91
2019-05-13T06:09:38.245Z,98176.20
2019-05-13T06:14:33.066Z,98184.70
2019-05-13T06:19:31.658Z,98183.14
2019-05-13T06:24:26.908Z,98183.80
2019-05-13T06:29:22.355Z,98187.45
2019-05-13T06:34:17.925Z,98182.53
2019-05-13T06:39:12.638Z,98199.30
2019-05-13T06:44:07.746Z,98200.91
2019-05-13T06:49:02.925Z,98207.05
2019-05-13T06:53:58.134Z,98214.50
2019-05-13T06:58:52.850Z,98208.47
2019-05-13T07:03:48.081Z,98202.95
2019-05-13T07:08:42.832Z,98201.77
2019-05-13T07:13:37.441Z,98209.32
2019-05-13T07:18:32.450Z,98203.67
2019-05-13T07:23:27.988Z,98200.02
2019-05-13T07:28:24.089Z,98192.28
2019-05-13T07:33:21.384Z,98197.86
2019-05-13T07:38:16.012Z,98195.23
2019-05-13T07:43:12.410Z,98187.91
2019-05-13T07:48:19.514Z,98182.09
2019-05-13T07:53:04.200Z,98193.23
2019-05-13T07:58:02.111Z,98191.30
2019-05-13T08:02:57.101Z,98192.47
2019-05-13T08:07:52.085Z,98190.36
2019-05-13T08:12:51.557Z,98188.28
2019-05-13T08:17:47.768Z,98181.37
2019-05-13T08:22:42.737Z,98181.25
2019-05-13T08:27:47.061Z,98183.12
2019-05-13T08:32:42.048Z,98182.67
2019-05-13T08:37:44.153Z,98171.45
2019-05-13T08:42:41.523Z,98169.44
2019-05-13T08:47:36.795Z,98179.02
2019-05-13T08:52:31.512Z,98175.27
2019-05-13T08:57:26.161Z,98190.17
2019-05-13T09:02:22.177Z,98180.57
2019-05-13T09:07:17.137Z,98169.41
2019-05-13T09:12:28.138Z,98165.00
2019-05-13T09:17:08.964Z,98165.95
2019-05-13T09:22:03.649Z,98170.28
2019-05-13T09:26:58.316Z,98182.42
2019-05-13T09:31:53.422Z,98176.64
2019-05-13T09:36:48.052Z,98186.30
2019-05-13T09:41:44.573Z,98175.59
2019-05-13T09:46:39.211Z,98171.36
2019-05-13T09:51:36.010Z,98178.23
2019-05-13T09:56:32.046Z,98180.14
2019-05-13T10:01:26.705Z,98171.13
2019-05-13T10:06:22.292Z,98180.43
2019-05-13T10:11:17.039Z,98170.22
2019-05-13T10:16:12.419Z,98172.97
2019-05-13T10:21:07.541Z,98176.80
2019-05-13T10:26:07.304Z,98179.94
2019-05-13T10:31:02.428Z,98173.67
2019-05-13T10:35:57.702Z,98183.91
2019-05-13T10:40:52.480Z,98183.57
2019-05-13T10:45:48.087Z,98175.84
2019-05-13T10:50:42.697Z,98193.44
2019-05-13T10:55:37.339Z,98169.41
2019-05-13T11:00:51.763Z,98168.31
2019-05-13T11:05:52.262Z,98169.63
2019-05-13T11:10:46.601Z,98167.27
2019-05-13T11:15:45.421Z,98181.36
2019-05-13T11:20:38.553Z,98181.05
2019-05-13T11:25:33.219Z,98176.45
2019-05-13T11:30:28.138Z,98186.33
2019-05-13T11:35:22.989Z,98181.89
2019-05-13T11:40:18.447Z,98177.01
2019-05-13T11:45:14.132Z,98177.41
2019-05-13T11:50:11.551Z,98173.59
2019-05-13T11:55:12.776Z,98178.87
2019-05-13T12:00:13.453Z,98182.28
2019-05-13T12:05:09.677Z,98184.52
2019-05-13T12:10:07.917Z,98184.00
2019-05-13T12:15:26.297Z,98183.48
2019-05-13T12:20:03.404Z,98187.97
2019-05-13T12:24:58.333Z,98181.41
2019-05-13T12:29:53.309Z,98180.77
2019-05-13T12:34:48.210Z,98179.72
2019-05-13T12:39:44.094Z,98186.06
2019-05-13T12:44:59.857Z,98181.07
2019-05-13T12:49:36.785Z,98185.74
2019-05-13T12:54:32.455Z,98201.83
2019-05-13T12:59:36.775Z,98217.14
2019-05-13T13:04:33.623Z,98200.95
2019-05-13T13:09:28.548Z,98206.81
2019-05-13T13:14:23.458Z,98201.55
2019-05-13T13:19:18.169Z,98208.63
2019-05-13T13:24:12.848Z,98186.98
2019-05-13T13:29:07.524Z,98181.20
2019-05-13T13:34:11.269Z,98187.67
2019-05-13T13:38:58.592Z,98190.61
2019-05-13T13:43:54.079Z,98178.45
2019-05-13T13:48:49.037Z,98179.47
2019-05-13T13:53:44.619Z,98178.73
2019-05-13T13:58:43.296Z,98169.14
2019-05-13T14:03:35.998Z,98156.86
2019-05-13T14:08:31.810Z,98148.08
2019-05-13T14:13:26.661Z,98145.59
2019-05-13T14:18:26.839Z,98145.24
2019-05-13T14:23:21.287Z,98155.13
2019-05-13T14:28:17.538Z,98139.27
2019-05-13T14:33:12.520Z,98142.52
2019-05-13T14:38:07.105Z,98132.39
2019-05-13T14:43:05.778Z,98130.69
2019-05-13T14:48:01.720Z,98122.11
2019-05-13T14:52:56.505Z,98125.81
2019-05-13T14:57:52.567Z,98135.26
2019-05-13T15:02:47.402Z,98137.28
2019-05-13T15:07:42.300Z,98140.50
2019-05-13T15:12:36.958Z,98128.44
2019-05-13T15:17:34.300Z,98132.02
2019-05-13T15:22:28.228Z,98127.03
2019-05-13T15:27:22.838Z,98113.03
2019-05-13T15:32:17.410Z,98110.01
2019-05-13T15:37:12.390Z,98104.00
2019-05-13T15:42:07.125Z,98101.91
2019-05-13T15:47:03.923Z,98104.28
2019-05-13T15:51:58.041Z,98109.57
2019-05-13T15:56:52.636Z,98108.83
2019-05-13T16:01:47.256Z,98093.59
2019-05-13T16:06:41.985Z,98098.77
2019-05-13T16:11:36.755Z,98094.17
2019-05-13T16:16:32.732Z,98089.01
2019-05-13T16:21:27.314Z,98096.49
2019-05-13T16:26:22.723Z,98083.41
2019-05-13T16:31:17.651Z,98098.66
2019-05-13T16:36:12.793Z,98100.25
2019-05-13T16:41:07.857Z,98099.64
2019-05-13T16:46:02.602Z,98101.56
2019-05-13T16:50:57.345Z,98097.80
2019-05-13T16:55:51.943Z,98094.31
2019-05-13T17:00:47.757Z,98099.02
2019-05-13T17:05:42.357Z,98102.05
2019-05-13T17:10:36.971Z,98102.34
2019-05-13T17:15:31.570Z,98102.66
2019-05-13T17:20:26.199Z,98104.60
2019-05-13T17:25:20.790Z,98110.63
2019-05-13T17:30:16.425Z,98107.79
2019-05-13T17:35:11.875Z,98109.64
2019-05-13T17:40:11.710Z,98102.21
2019-05-13T17:45:11.313Z,98110.87
2019-05-13T17:50:08.986Z,98105.79
2019-05-13T17:55:04.540Z,98105.75
2019-05-13T17:59:59.127Z,98114.23
2019-05-13T18:04:53.712Z,98109.36
2019-05-13T18:09:48.311Z,98110.71
2019-05-13T18:14:42.896Z,98112.86
2019-05-13T18:19:37.493Z,98115.19
2019-05-13T18:24:32.308Z,98113.11
2019-05-13T18:29:27.041Z,98102.30
2019-05-13T18:34:21.704Z,98099.95
2019-05-13T18:39:16.310Z,98104.09
2019-05-13T18:44:12.198Z,98096.63
2019-05-13T18:49:07.318Z,98100.29
2019-05-13T18:54:01.962Z,98104.03
2019-05-13T18:58:56.647Z,98104.92
2019-05-13T19:03:51.304Z,98108.36
2019-05-13T19:08:45.908Z,98110.13
2019-05-13T19:13:41.684Z,98100.00
2019-05-13T19:18:36.476Z,98108.88
2019-05-13T19:23:31.492Z,98111.63
2019-05-13T19:28:26.340Z,98110.54
2019-05-13T19:33:22.076Z,98099.77
2019-05-13T19:38:16.972Z,98112.03
2019-05-13T19:43:11.794Z,98123.68
2019-05-13T19:48:06.707Z,98115.58
2019-05-13T19:53:01.407Z,98124.11
2019-05-13T19:57:56.048Z,98122.58
2019-05-13T20:02:50.707Z,98118.46
2019-05-13T20:07:45.321Z,98110.65
2019-05-13T20:12:41.913Z,98110.79
2019-05-13T20:17:36.232Z,98118.09
2019-05-13T20:22:31.345Z,98113.55
2019-05-13T20:27:26.323Z,98113.53
2019-05-13T20:32:22.202Z,98113.93
2019-05-13T20:37:16.983Z,98111.44
2019-05-13T20:42:12.466Z,98109.26
2019-05-13T20:47:07.420Z,98103.97
2019-05-13T20:52:02.789Z,98101.27
2019-05-13T20:56:57.458Z,98096.34
2019-05-13T21:01:52.103Z,98098.21
2019-05-13T21:06:46.856Z,98095.86
2019-05-13T21:11:41.823Z,98088.48
2019-05-13T21:16:36.507Z,98089.55
2019-05-13T21:21:31.221Z,98081.81
2019-05-13T21:26:25.924Z,98078.35
2019-05-13T21:31:21.487Z,98082.28
2019-05-13T21:36:16.352Z,98080.50
2019-05-13T21:41:11.771Z,98075.61
2019-05-13T21:46:06.567Z,98067.09
2019-05-13T21:51:01.154Z,98065.49
2019-05-13T21:55:55.713Z,98063.48
2019-05-13T22:00:51.993Z,98055.44
2019-05-13T22:05:46.810Z,98051.20
2019-05-13T22:10:41.701Z,98051.06
2019-05-13T22:15:36.443Z,98059.88
2019-05-13T22:20:33.049Z,98052.09
2019-05-13T22:25:27.457Z,98033.06
2019-05-13T22:30:22.149Z,98037.00
2019-05-13T22:35:16.857Z,98036.69
2019-05-13T22:40:11.686Z,98029.18
2019-05-13T22:45:07.181Z,98023.09
2019-05-13T22:50:02.237Z,98022.03
2019-05-13T22:54:57.102Z,98022.16
2019-05-13T22:59:52.080Z,98023.80
2019-05-13T23:04:46.651Z,98027.92
2019-05-13T23:09:41.679Z,98006.19
2019-05-13T23:14:36.476Z,98005.40
2019-05-13T23:19:32.321Z,98010.28
2019-05-13T23:24:27.109Z,98000.48
2019-05-13T23:29:21.697Z,97998.06
2019-05-13T23:34:16.270Z,98010.95
2019-05-13T23:39:11.646Z,97995.25
2019-05-13T23:44:19.987Z,97989.83
2019-05-13T23:49:03.025Z,97984.92
2019-05-13T23:53:57.596Z,97980.77
2019-05-13T23:58:52.221Z,97975.40
